createdAt,value
2018-03-07T00:00:44.940Z,21.00
2018-03-07T00:03:14.004Z,21.00
2018-03-07T00:05:43.803Z,20.90
2018-03-07T00:08:13.984Z,20.90
2018-03-07T00:10:43.672Z,20.90
2018-03-07T00:13:12.807Z,20.90
2018-03-07T00:15:42.676Z,20.90
2018-03-07T00:18:12.739Z,20.80
2018-03-07T00:20:42.028Z,20.80
2018-03-07T00:23:11.162Z,20.80
2018-03-07T00:25:40.313Z,20.80
2018-03-07T00:28:09.368Z,20.70
2018-03-07T00:30:38.663Z,20.70
2018-03-07T00:33:07.792Z,20.80
2018-03-07T00:35:36.927Z,20.70
2018-03-07T00:38:05.883Z,20.70
2018-03-07T00:40:35.024Z,20.70
2018-03-07T00:43:04.176Z,20.60
2018-03-07T00:45:33.127Z,20.50
2018-03-07T00:48:02.951Z,20.50
2018-03-07T00:50:32.264Z,20.50
2018-03-07T00:53:02.231Z,20.40
2018-03-07T00:55:31.504Z,20.40
2018-03-07T00:58:00.599Z,20.40
2018-03-07T01:00:29.984Z,20.30
2018-03-07T01:02:59.888Z,20.20
2018-03-07T01:05:28.991Z,20.20
2018-03-07T01:07:58.824Z,20.20
2018-03-07T01:10:28.190Z,20.20
2018-03-07T01:12:58.163Z,20.20
2018-03-07T01:15:27.156Z,20.20
2018-03-07T01:17:56.284Z,20.10
2018-03-07T01:20:26.128Z,20.10
2018-03-07T01:22:55.960Z,20.10
2018-03-07T01:25:25.303Z,20.10
2018-03-07T01:27:54.855Z,20.10
2018-03-07T01:30:23.960Z,20.10
2018-03-07T01:32:54.028Z,20.00
2018-03-07T01:35:25.106Z,20.00
2018-03-07T01:37:55.448Z,20.00
2018-03-07T01:40:24.541Z,20.00
2018-03-07T01:42:54.655Z,20.00
2018-03-07T01:45:23.752Z,19.90
2018-03-07T01:47:53.583Z,19.90
2018-03-07T01:50:22.495Z,19.90
2018-03-07T01:52:51.444Z,19.90
2018-03-07T01:55:20.672Z,20.10
2018-03-07T01:57:49.839Z,20.00
2018-03-07T02:00:20.427Z,20.00
2018-03-07T02:02:49.773Z,20.00
2018-03-07T02:05:19.048Z,20.00
2018-03-07T02:07:48.143Z,20.00
2018-03-07T02:10:17.968Z,20.10
2018-03-07T02:12:47.064Z,20.10
2018-03-07T02:15:16.207Z,20.10
2018-03-07T02:17:45.661Z,20.10
2018-03-07T02:20:14.927Z,20.10
2018-03-07T02:22:44.304Z,20.00
2018-03-07T02:25:14.351Z,20.10
2018-03-07T02:27:44.951Z,20.10
2018-03-07T02:30:14.901Z,20.00
2018-03-07T02:32:44.084Z,20.00
2018-03-07T02:35:13.331Z,20.10
2018-03-07T02:37:42.500Z,19.90
2018-03-07T02:40:11.672Z,19.90
2018-03-07T02:42:41.852Z,20.00
2018-03-07T02:45:11.537Z,20.10
2018-03-07T02:47:40.395Z,20.10
2018-03-07T02:50:09.633Z,20.00
2018-03-07T02:52:38.692Z,20.10
2018-03-07T02:55:07.851Z,20.20
2018-03-07T02:57:36.821Z,20.10
2018-03-07T03:00:07.316Z,20.00
2018-03-07T03:02:37.464Z,20.00
2018-03-07T03:05:06.536Z,19.90
2018-03-07T03:07:35.873Z,20.00
2018-03-07T03:10:04.866Z,20.10
2018-03-07T03:12:34.844Z,20.30
2018-03-07T03:15:04.048Z,20.20
2018-03-07T03:17:33.680Z,20.30
2018-03-07T03:20:02.938Z,20.20
2018-03-07T03:22:32.212Z,20.20
2018-03-07T03:25:01.671Z,20.30
2018-03-07T03:27:30.763Z,20.40
2018-03-07T03:30:02.733Z,20.50
2018-03-07T03:32:31.847Z,20.50
2018-03-07T03:35:00.950Z,20.50
2018-03-07T03:37:30.328Z,20.50
2018-03-07T03:40:00.339Z,20.70
2018-03-07T03:42:29.635Z,20.70
2018-03-07T03:44:59.333Z,20.80
2018-03-07T03:47:28.864Z,20.80
2018-03-07T03:49:58.014Z,20.90
2018-03-07T03:52:27.184Z,21.00
2018-03-07T03:54:56.468Z,21.20
2018-03-07T03:57:27.192Z,21.40
2018-03-07T03:59:56.188Z,21.40
2018-03-07T04:02:25.423Z,21.60
2018-03-07T04:04:54.420Z,21.90
2018-03-07T04:07:23.408Z,22.10
2018-03-07T04:09:52.536Z,22.30
2018-03-07T04:12:22.180Z,22.80
2018-03-07T04:14:51.276Z,22.70
2018-03-07T04:17:20.592Z,23.60
2018-03-07T04:19:49.575Z,24.80
2018-03-07T04:22:18.680Z,25.40
2018-03-07T04:24:48.720Z,24.90
2018-03-07T04:27:17.996Z,24.90
2018-03-07T04:29:47.923Z,24.30
2018-03-07T04:32:17.197Z,24.30
2018-03-07T04:34:46.508Z,24.10
2018-03-07T04:37:15.636Z,24.10
2018-03-07T04:39:45.117Z,24.10
2018-03-07T04:42:14.143Z,24.10
2018-03-07T04:44:43.012Z,24.10
2018-03-07T04:47:12.236Z,24.30
2018-03-07T04:49:41.240Z,24.50
2018-03-07T04:52:10.364Z,24.60
2018-03-07T04:54:39.328Z,24.70
2018-03-07T04:57:08.319Z,25.00
2018-03-07T04:59:37.312Z,25.30
2018-03-07T05:02:06.440Z,25.50
2018-03-07T05:04:36.319Z,26.00
2018-03-07T05:07:05.591Z,26.00
2018-03-07T05:09:34.696Z,26.20
2018-03-07T05:12:03.960Z,26.60
2018-03-07T05:14:33.907Z,27.00
2018-03-07T05:17:03.908Z,27.40
2018-03-07T05:19:33.356Z,27.40
2018-03-07T05:22:02.640Z,27.70
2018-03-07T05:24:31.629Z,28.00
2018-03-07T05:27:01.640Z,27.90
2018-03-07T05:29:31.047Z,27.90
2018-03-07T05:32:01.029Z,30.00
2018-03-07T05:34:30.784Z,30.90
2018-03-07T05:37:00.048Z,30.90
2018-03-07T05:39:29.304Z,32.00
2018-03-07T05:41:58.563Z,32.80
2018-03-07T05:44:29.272Z,31.60
2018-03-07T05:46:59.299Z,30.90
2018-03-07T05:49:28.396Z,30.90
2018-03-07T05:51:58.244Z,30.20
2018-03-07T05:54:28.069Z,30.10
2018-03-07T05:56:57.040Z,30.00
2018-03-07T05:59:25.941Z,30.10
2018-03-07T06:01:55.967Z,29.60
2018-03-07T06:04:25.164Z,29.60
2018-03-07T06:06:55.315Z,29.40
2018-03-07T06:09:24.303Z,29.40
2018-03-07T06:11:53.413Z,29.30
2018-03-07T06:14:22.680Z,29.20
2018-03-07T06:16:51.908Z,29.10
2018-03-07T06:19:20.908Z,29.10
2018-03-07T06:21:50.044Z,29.20
2018-03-07T06:24:19.284Z,29.30
2018-03-07T06:26:48.554Z,29.40
2018-03-07T06:29:17.772Z,29.80
2018-03-07T06:31:47.420Z,29.90
2018-03-07T06:34:16.412Z,29.80
2018-03-07T06:36:45.643Z,29.90
2018-03-07T06:39:15.415Z,30.30
2018-03-07T06:41:44.513Z,30.20
2018-03-07T06:44:13.794Z,30.40
2018-03-07T06:46:42.888Z,30.30
2018-03-07T06:49:12.122Z,30.40
2018-03-07T06:51:42.752Z,30.60
2018-03-07T06:54:13.312Z,31.40
2018-03-07T06:56:42.277Z,31.40
2018-03-07T06:59:11.267Z,32.60
2018-03-07T07:01:40.503Z,33.90
2018-03-07T07:04:10.271Z,34.40
2018-03-07T07:06:39.371Z,34.40
2018-03-07T07:09:08.754Z,35.70
2018-03-07T07:11:38.886Z,34.00
2018-03-07T07:14:08.000Z,34.00
2018-03-07T07:16:37.371Z,33.60
2018-03-07T07:19:07.488Z,33.00
2018-03-07T07:21:36.615Z,33.00
2018-03-07T07:24:05.711Z,32.70
2018-03-07T07:26:34.987Z,32.30
2018-03-07T07:29:04.960Z,32.00
2018-03-07T07:31:34.100Z,31.90
2018-03-07T07:34:03.941Z,32.00
2018-03-07T07:36:33.302Z,32.00
2018-03-07T07:39:02.616Z,31.90
2018-03-07T07:41:31.816Z,32.00
2018-03-07T07:44:01.647Z,31.70
2018-03-07T07:46:30.611Z,31.60
2018-03-07T07:49:00.017Z,31.70
2018-03-07T07:51:29.332Z,31.50
2018-03-07T07:53:59.272Z,31.60
2018-03-07T07:56:28.433Z,31.60
2018-03-07T07:58:57.811Z,31.30
2018-03-07T08:01:26.908Z,31.40
2018-03-07T08:03:56.736Z,31.90
2018-03-07T08:06:26.131Z,31.90
2018-03-07T08:08:55.808Z,31.60
2018-03-07T08:11:24.801Z,31.60
2018-03-07T08:13:54.086Z,31.30
2018-03-07T08:16:23.072Z,31.30
2018-03-07T08:18:52.371Z,32.70
2018-03-07T08:21:22.496Z,35.00
2018-03-07T08:23:51.512Z,34.90
2018-03-07T08:26:20.692Z,34.60
2018-03-07T08:28:50.616Z,33.60
2018-03-07T08:31:20.005Z,33.50
2018-03-07T08:33:49.781Z,32.40
2018-03-07T08:36:19.763Z,31.70
2018-03-07T08:38:49.435Z,31.70
2018-03-07T08:41:19.244Z,31.40
2018-03-07T08:43:48.668Z,31.30
2018-03-07T08:46:17.770Z,31.30
2018-03-07T08:48:47.840Z,30.70
2018-03-07T08:51:17.732Z,30.60
2018-03-07T08:53:46.699Z,30.60
2018-03-07T08:56:15.720Z,30.60
2018-03-07T08:58:44.583Z,30.50
2018-03-07T09:01:13.820Z,30.40
2018-03-07T09:03:42.876Z,30.30
2018-03-07T09:06:12.243Z,30.40
2018-03-07T09:08:41.208Z,30.20
2018-03-07T09:11:10.337Z,30.40
2018-03-07T09:13:39.296Z,30.30
2018-03-07T09:16:08.288Z,30.30
2018-03-07T09:18:37.420Z,30.30
2018-03-07T09:21:07.402Z,30.30
2018-03-07T09:23:36.572Z,30.30
2018-03-07T09:26:06.648Z,30.30
2018-03-07T09:28:35.784Z,30.30
2018-03-07T09:31:05.616Z,30.30
2018-03-07T09:33:34.580Z,30.30
2018-03-07T09:36:04.217Z,30.20
2018-03-07T09:38:33.399Z,30.30
2018-03-07T09:41:03.108Z,30.20
2018-03-07T09:43:32.228Z,30.20
2018-03-07T09:46:02.056Z,30.20
2018-03-07T09:48:31.337Z,30.20
2018-03-07T09:51:01.330Z,30.00
2018-03-07T09:53:30.499Z,29.90
2018-03-07T09:56:00.242Z,30.00
2018-03-07T09:58:29.152Z,29.90
2018-03-07T10:00:58.920Z,29.90
2018-03-07T10:03:28.952Z,29.90
2018-03-07T10:05:57.855Z,29.90
2018-03-07T10:08:26.752Z,30.00
2018-03-07T10:10:55.928Z,30.00
2018-03-07T10:13:25.776Z,30.00
2018-03-07T10:15:55.560Z,30.00
2018-03-07T10:18:25.404Z,30.00
2018-03-07T10:20:55.441Z,30.10
2018-03-07T10:23:25.176Z,29.90
2018-03-07T10:25:54.231Z,29.90
2018-03-07T10:28:24.357Z,29.70
2018-03-07T10:30:53.477Z,29.70
2018-03-07T10:33:28.277Z,29.70
2018-03-07T10:35:57.479Z,29.60
2018-03-07T10:38:27.233Z,29.50
2018-03-07T10:40:56.944Z,29.50
2018-03-07T10:43:26.520Z,29.50
2018-03-07T10:45:55.607Z,29.40
2018-03-07T10:48:25.484Z,29.60
2018-03-07T10:50:55.308Z,29.40
2018-03-07T10:53:24.264Z,29.40
2018-03-07T10:55:53.613Z,29.40
2018-03-07T10:58:22.509Z,29.40
2018-03-07T11:00:51.507Z,29.40
2018-03-07T11:03:20.592Z,29.50
2018-03-07T11:05:49.648Z,29.60
2018-03-07T11:08:18.595Z,29.50
2018-03-07T11:10:47.540Z,29.40
2018-03-07T11:13:16.620Z,29.40
2018-03-07T11:15:45.748Z,29.20
2018-03-07T11:18:16.471Z,29.20
2018-03-07T11:20:45.791Z,29.20
2018-03-07T11:23:15.368Z,29.10
2018-03-07T11:25:44.548Z,29.10
2018-03-07T11:28:13.567Z,29.00
2018-03-07T11:30:42.847Z,29.10
2018-03-07T11:33:12.069Z,29.20
2018-03-07T11:35:41.068Z,29.20
2018-03-07T11:38:10.188Z,29.20
2018-03-07T11:40:38.952Z,29.10
2018-03-07T11:43:07.943Z,29.00
2018-03-07T11:45:37.172Z,29.10
2018-03-07T11:48:06.820Z,29.00
2018-03-07T11:50:36.332Z,28.90
2018-03-07T11:53:05.430Z,28.90
2018-03-07T11:55:34.556Z,28.90
2018-03-07T11:58:03.688Z,29.10
2018-03-07T12:00:32.827Z,29.10
2018-03-07T12:03:01.801Z,28.90
2018-03-07T12:05:31.839Z,29.00
2018-03-07T12:08:00.937Z,29.00
2018-03-07T12:10:30.028Z,29.00
2018-03-07T12:12:59.122Z,29.00
2018-03-07T12:15:29.287Z,29.30
2018-03-07T12:17:59.088Z,29.30
2018-03-07T12:20:28.135Z,29.30
2018-03-07T12:22:57.032Z,29.30
2018-03-07T12:25:26.206Z,29.30
2018-03-07T12:27:55.984Z,29.20
2018-03-07T12:30:25.260Z,29.20
2018-03-07T12:32:54.390Z,29.20
2018-03-07T12:35:23.556Z,29.00
2018-03-07T12:37:52.579Z,29.00
2018-03-07T12:40:21.784Z,29.20
2018-03-07T12:42:50.784Z,29.10
2018-03-07T12:45:19.756Z,29.00
2018-03-07T12:47:48.944Z,29.00
2018-03-07T12:50:18.980Z,28.90
2018-03-07T12:52:48.053Z,28.90
2018-03-07T12:55:18.050Z,28.90
2018-03-07T12:57:47.250Z,28.90
2018-03-07T13:00:16.450Z,28.90
2018-03-07T13:02:45.624Z,28.90
2018-03-07T13:05:17.420Z,28.80
2018-03-07T13:07:46.827Z,28.70
2018-03-07T13:10:16.472Z,28.70
2018-03-07T13:12:45.604Z,28.70
2018-03-07T13:15:14.576Z,28.70
2018-03-07T13:17:43.527Z,28.70
2018-03-07T13:20:13.572Z,28.60
2018-03-07T13:22:42.668Z,28.60
2018-03-07T13:25:11.771Z,28.50
2018-03-07T13:27:41.044Z,28.50
2018-03-07T13:30:11.012Z,28.40
2018-03-07T13:32:40.840Z,28.30
2018-03-07T13:35:09.801Z,28.30
2018-03-07T13:37:38.927Z,28.20
2018-03-07T13:40:07.874Z,28.10
2018-03-07T13:42:36.989Z,28.10
2018-03-07T13:45:05.864Z,28.10
2018-03-07T13:47:34.823Z,28.00
2018-03-07T13:50:03.764Z,28.00
2018-03-07T13:52:32.865Z,27.90
2018-03-07T13:55:01.993Z,28.00
2018-03-07T13:57:31.876Z,27.90
2018-03-07T14:00:00.935Z,27.80
2018-03-07T14:02:30.340Z,27.80
2018-03-07T14:05:00.316Z,27.60
2018-03-07T14:07:30.244Z,27.60
2018-03-07T14:10:00.013Z,27.50
2018-03-07T14:12:29.196Z,27.50
2018-03-07T14:14:58.244Z,27.50
2018-03-07T14:17:27.313Z,27.50
2018-03-07T14:19:56.580Z,27.50
2018-03-07T14:22:25.965Z,27.40
2018-03-07T14:24:55.803Z,27.30
2018-03-07T14:27:24.896Z,27.30
2018-03-07T14:29:55.247Z,27.30
2018-03-07T14:32:24.628Z,27.20
2018-03-07T14:34:54.592Z,27.30
2018-03-07T14:37:23.728Z,27.30
2018-03-07T14:39:53.061Z,27.30
2018-03-07T14:42:22.791Z,27.40
2018-03-07T14:44:51.752Z,27.40
2018-03-07T14:47:21.182Z,27.40
2018-03-07T14:49:50.431Z,27.30
2018-03-07T14:52:19.436Z,27.20
2018-03-07T14:54:48.834Z,27.10
2018-03-07T14:57:18.003Z,27.10
2018-03-07T14:59:47.353Z,27.00
2018-03-07T15:02:16.591Z,27.00
2018-03-07T15:04:45.654Z,27.00
2018-03-07T15:07:14.886Z,27.00
2018-03-07T15:09:43.947Z,27.00
2018-03-07T15:12:13.104Z,27.00
2018-03-07T15:14:42.316Z,26.90
2018-03-07T15:17:12.160Z,26.90
2018-03-07T15:19:41.276Z,26.90
2018-03-07T15:22:10.453Z,26.90
2018-03-07T15:24:40.500Z,26.80
2018-03-07T15:27:09.596Z,26.80
2018-03-07T15:29:38.872Z,26.80
2018-03-07T15:32:07.764Z,26.80
2018-03-07T15:34:36.968Z,26.80
2018-03-07T15:37:06.227Z,26.90
2018-03-07T15:39:36.104Z,26.90
2018-03-07T15:42:05.284Z,26.90
2018-03-07T15:44:34.272Z,26.80
2018-03-07T15:47:04.274Z,26.80
2018-03-07T15:49:33.616Z,26.80
2018-03-07T15:52:02.716Z,26.80
2018-03-07T15:54:31.896Z,26.70
2018-03-07T15:57:02.004Z,26.70
2018-03-07T15:59:31.132Z,26.70
2018-03-07T16:02:00.511Z,26.60
2018-03-07T16:04:31.956Z,26.60
2018-03-07T16:07:01.115Z,26.60
2018-03-07T16:09:30.212Z,26.50
2018-03-07T16:11:59.485Z,26.40
2018-03-07T16:14:28.764Z,26.30
2018-03-07T16:16:58.737Z,26.30
2018-03-07T16:19:28.009Z,26.30
2018-03-07T16:21:57.075Z,26.30
2018-03-07T16:24:25.960Z,26.30
2018-03-07T16:26:55.796Z,26.30
2018-03-07T16:29:24.755Z,26.30
2018-03-07T16:31:53.836Z,26.30
2018-03-07T16:34:23.617Z,26.20
2018-03-07T16:36:52.884Z,26.20
2018-03-07T16:39:22.019Z,26.20
2018-03-07T16:41:52.311Z,26.10
2018-03-07T16:44:21.465Z,26.20
2018-03-07T16:46:50.713Z,26.20
2018-03-07T16:49:19.948Z,26.20
2018-03-07T16:51:49.136Z,26.20
2018-03-07T16:54:19.484Z,26.20
2018-03-07T16:56:48.918Z,26.20
2018-03-07T16:59:18.492Z,26.20
2018-03-07T17:01:50.880Z,26.20
2018-03-07T17:04:21.077Z,26.30
2018-03-07T17:06:50.148Z,26.20
2018-03-07T17:09:19.336Z,26.10
2018-03-07T17:11:49.555Z,26.10
2018-03-07T17:14:18.720Z,26.10
2018-03-07T17:16:48.168Z,26.10
2018-03-07T17:19:17.267Z,26.00
2018-03-07T17:21:47.232Z,26.00
2018-03-07T17:24:17.228Z,26.00
2018-03-07T17:26:46.228Z,26.00
2018-03-07T17:29:15.444Z,26.00
2018-03-07T17:31:44.548Z,25.90
2018-03-07T17:34:14.512Z,25.90
2018-03-07T17:36:44.506Z,25.90
2018-03-07T17:39:13.823Z,25.90
2018-03-07T17:41:43.645Z,25.80
2018-03-07T17:44:13.788Z,25.80
2018-03-07T17:46:43.068Z,25.80
2018-03-07T17:49:12.155Z,25.80
2018-03-07T17:51:43.132Z,25.70
2018-03-07T17:54:12.723Z,25.70
2018-03-07T17:56:41.867Z,25.70
2018-03-07T17:59:11.572Z,25.70
2018-03-07T18:01:41.128Z,25.60
2018-03-07T18:04:10.220Z,25.60
2018-03-07T18:06:40.196Z,25.60
2018-03-07T18:09:10.088Z,25.50
2018-03-07T18:11:39.048Z,25.50
2018-03-07T18:14:08.080Z,25.50
2018-03-07T18:16:37.206Z,25.50
2018-03-07T18:19:07.084Z,25.40
2018-03-07T18:21:36.304Z,25.40
2018-03-07T18:24:05.562Z,25.40
2018-03-07T18:26:35.572Z,25.40
2018-03-07T18:29:04.700Z,25.40
2018-03-07T18:31:33.696Z,25.40
2018-03-07T18:34:02.868Z,25.30
2018-03-07T18:36:32.063Z,25.30
2018-03-07T18:39:01.196Z,25.30
2018-03-07T18:41:30.188Z,25.20
2018-03-07T18:44:00.201Z,25.10
2018-03-07T18:46:29.375Z,25.10
2018-03-07T18:48:58.473Z,25.10
2018-03-07T18:51:28.688Z,25.10
2018-03-07T18:53:57.716Z,25.10
2018-03-07T18:56:26.999Z,25.10
2018-03-07T18:58:56.296Z,25.00
2018-03-07T19:01:26.407Z,24.80
2018-03-07T19:03:56.803Z,24.80
2018-03-07T19:06:27.368Z,24.80
2018-03-07T19:08:56.679Z,24.80
2018-03-07T19:11:26.851Z,24.70
2018-03-07T19:13:56.607Z,24.70
2018-03-07T19:16:26.724Z,24.70
2018-03-07T19:18:55.820Z,24.70
2018-03-07T19:21:25.751Z,24.60
2018-03-07T19:23:55.763Z,24.50
2018-03-07T19:26:24.860Z,24.50
2018-03-07T19:28:54.936Z,24.50
2018-03-07T19:31:24.856Z,24.40
2018-03-07T19:33:53.824Z,24.40
2018-03-07T19:36:22.849Z,24.40
2018-03-07T19:38:52.018Z,24.40
2018-03-07T19:41:20.959Z,24.40
2018-03-07T19:43:49.984Z,24.40
2018-03-07T19:46:18.899Z,24.40
2018-03-07T19:48:47.976Z,24.40
2018-03-07T19:51:17.141Z,24.30
2018-03-07T19:53:46.443Z,24.30
2018-03-07T19:56:15.761Z,24.30
2018-03-07T19:58:45.460Z,24.10
2018-03-07T20:01:14.531Z,24.10
2018-03-07T20:03:43.465Z,24.10
2018-03-07T20:06:12.448Z,24.10
2018-03-07T20:08:42.476Z,24.00
2018-03-07T20:11:11.576Z,24.00
2018-03-07T20:13:41.747Z,23.90
2018-03-07T20:16:11.644Z,23.90
2018-03-07T20:18:40.636Z,23.90
2018-03-07T20:21:09.632Z,23.90
2018-03-07T20:23:38.740Z,23.90
2018-03-07T20:26:07.733Z,24.00
2018-03-07T20:28:36.746Z,24.00
2018-03-07T20:31:08.396Z,23.90
2018-03-07T20:33:39.180Z,23.90
2018-03-07T20:36:08.323Z,23.80
2018-03-07T20:38:37.508Z,23.70
2018-03-07T20:41:07.316Z,23.60
2018-03-07T20:43:36.591Z,23.60
2018-03-07T20:46:05.688Z,23.70
2018-03-07T20:48:34.683Z,23.70
2018-03-07T20:51:03.679Z,23.80
2018-03-07T20:53:33.791Z,23.60
2018-03-07T20:56:02.891Z,23.70
2018-03-07T20:58:32.781Z,23.50
2018-03-07T21:01:02.628Z,23.40
2018-03-07T21:03:32.449Z,23.50
2018-03-07T21:06:01.721Z,23.40
2018-03-07T21:08:31.076Z,23.50
2018-03-07T21:11:00.165Z,23.50
2018-03-07T21:13:29.236Z,23.50
2018-03-07T21:15:58.535Z,23.40
2018-03-07T21:18:27.700Z,23.40
2018-03-07T21:20:57.008Z,23.40
2018-03-07T21:23:26.020Z,23.30
2018-03-07T21:25:54.907Z,23.40
2018-03-07T21:28:24.943Z,23.40
2018-03-07T21:30:54.180Z,23.30
2018-03-07T21:33:23.324Z,23.30
2018-03-07T21:35:52.399Z,23.40
2018-03-07T21:38:21.760Z,23.30
2018-03-07T21:40:51.139Z,23.30
2018-03-07T21:43:20.840Z,23.30
2018-03-07T21:45:49.963Z,23.30
2018-03-07T21:48:19.807Z,23.30
2018-03-07T21:50:48.859Z,23.30
2018-03-07T21:53:19.088Z,23.20
2018-03-07T21:55:48.888Z,23.20
2018-03-07T21:58:17.856Z,23.20
2018-03-07T22:00:46.975Z,23.20
2018-03-07T22:03:15.816Z,23.10
2018-03-07T22:05:45.824Z,23.10
2018-03-07T22:08:14.823Z,23.10
2018-03-07T22:10:43.916Z,23.10
2018-03-07T22:13:13.200Z,23.10
2018-03-07T22:15:42.291Z,23.10
2018-03-07T22:18:12.164Z,23.00
2018-03-07T22:20:42.051Z,22.90
2018-03-07T22:23:11.292Z,23.00
2018-03-07T22:25:40.193Z,22.90
2018-03-07T22:28:09.084Z,22.80
2018-03-07T22:30:38.211Z,22.80
2018-03-07T22:33:08.659Z,22.80
2018-03-07T22:35:39.253Z,22.70
2018-03-07T22:38:08.325Z,22.70
2018-03-07T22:40:38.199Z,22.70
2018-03-07T22:43:07.477Z,22.60
2018-03-07T22:45:36.476Z,22.60
2018-03-07T22:48:06.164Z,22.60
2018-03-07T22:50:35.244Z,22.60
2018-03-07T22:53:04.208Z,22.60
2018-03-07T22:55:33.331Z,22.50
2018-03-07T22:58:02.245Z,22.50
2018-03-07T23:00:36.780Z,22.50
2018-03-07T23:03:05.884Z,22.40
2018-03-07T23:05:34.984Z,22.30
2018-03-07T23:08:04.965Z,22.40
2018-03-07T23:10:34.806Z,22.30
2018-03-07T23:13:04.723Z,22.40
2018-03-07T23:15:34.033Z,22.30
2018-03-07T23:18:03.722Z,22.50
2018-03-07T23:20:32.631Z,22.40
2018-03-07T23:23:02.651Z,22.40
2018-03-07T23:25:31.752Z,22.40
2018-03-07T23:28:01.928Z,22.30
2018-03-07T23:30:31.636Z,22.20
2018-03-07T23:33:00.843Z,22.20
2018-03-07T23:35:29.964Z,22.20
2018-03-07T23:37:58.668Z,22.20
2018-03-07T23:40:27.845Z,22.30
2018-03-07T23:42:57.883Z,22.30
2018-03-07T23:45:27.739Z,22.30
2018-03-07T23:47:56.960Z,22.30
2018-03-07T23:50:27.692Z,22.10
2018-03-07T23:52:56.959Z,22.10
2018-03-07T23:55:26.055Z,22.10
2018-03-07T23:57:55.332Z,22.10
